sensor_id;sensor_type;location;lat;lon;timestamp;pressure;altitude;pressure_sealevel;temperature;humidity
6150;BME280;3106;42.670;23.318;2023-02-04T00:00:11;94215.63;;;2.41;97.98
6150;BME280;3106;42.670;23.318;2023-02-04T00:02:38;94205.47;;;2.34;98.39
6150;BME280;3106;42.670;23.318;2023-02-04T00:05:06;94208.97;;;2.30;98.97
6150;BME280;3106;42.670;23.318;2023-02-04T00:07:33;94198.25;;;2.26;100.00
6150;BME280;3106;42.670;23.318;2023-02-04T00:10:01;94181.50;;;2.09;100.00
6150;BME280;3106;42.670;23.318;2023-02-04T00:12:29;94195.91;;;2.11;100.00
6150;BME280;3106;42.670;23.318;2023-02-04T00:14:56;94201.03;;;2.08;100.00
6150;BME280;3106;42.670;23.318;2023-02-04T00:17:22;94184.81;;;2.01;100.00
6150;BME280;3106;42.670;23.318;2023-02-04T00:19:49;94118.66;;;1.62;100.00
6150;BME280;3106;42.670;23.318;2023-02-04T00:22:16;94181.78;;;1.94;100.00
6150;BME280;3106;42.670;23.318;2023-02-04T00:24:43;94185.31;;;1.89;100.00
6150;BME280;3106;42.670;23.318;2023-02-04T00:27:14;94136.81;;;1.63;100.00
6150;BME280;3106;42.670;23.318;2023-02-04T00:29:43;94123.53;;;1.55;100.00
6150;BME280;3106;42.670;23.318;2023-02-04T00:32:09;94175.44;;;1.81;100.00
6150;BME280;3106;42.670;23.318;2023-02-04T00:34:36;94164.63;;;1.83;100.00
6150;BME280;3106;42.670;23.318;2023-02-04T00:37:03;94167.25;;;1.83;100.00
6150;BME280;3106;42.670;23.318;2023-02-04T00:39:30;94170.00;;;1.78;100.00
6150;BME280;3106;42.670;23.318;2023-02-04T00:41:56;94162.25;;;1.81;100.00
6150;BME280;3106;42.670;23.318;2023-02-04T00:44:23;94167.94;;;1.75;100.00
6150;BME280;3106;42.670;23.318;2023-02-04T00:46:51;94177.91;;;1.78;100.00
6150;BME280;3106;42.670;23.318;2023-02-04T00:49:18;94171.56;;;1.79;100.00
6150;BME280;3106;42.670;23.318;2023-02-04T00:51:45;94152.91;;;1.75;100.00
6150;BME280;3106;42.670;23.318;2023-02-04T00:54:12;94151.06;;;1.76;100.00
6150;BME280;3106;42.670;23.318;2023-02-04T00:56:40;94156.03;;;1.64;100.00
6150;BME280;3106;42.670;23.318;2023-02-04T00:59:07;94146.56;;;1.63;100.00
6150;BME280;3106;42.670;23.318;2023-02-04T01:01:34;94141.88;;;1.60;100.00
6150;BME280;3106;42.670;23.318;2023-02-04T01:04:03;94136.03;;;1.63;100.00
6150;BME280;3106;42.670;23.318;2023-02-04T01:06:29;94134.19;;;1.63;100.00
6150;BME280;3106;42.670;23.318;2023-02-04T01:08:59;94118.00;;;1.56;100.00
6150;BME280;3106;42.670;23.318;2023-02-04T01:14:10;94122.66;;;1.73;100.00
6150;BME280;3106;42.670;23.318;2023-02-04T01:16:37;94117.09;;;1.74;100.00
6150;BME280;3106;42.670;23.318;2023-02-04T01:19:05;94101.00;;;1.76;100.00
6150;BME280;3106;42.670;23.318;2023-02-04T01:21:32;94117.09;;;1.74;100.00
6150;BME280;3106;42.670;23.318;2023-02-04T01:23:58;94103.84;;;1.66;100.00
6150;BME280;3106;42.670;23.318;2023-02-04T01:26:25;94113.19;;;1.72;100.00
6150;BME280;3106;42.670;23.318;2023-02-04T01:28:52;94112.50;;;1.80;100.00
6150;BME280;3106;42.670;23.318;2023-02-04T01:31:19;94093.66;;;1.86;100.00
6150;BME280;3106;42.670;23.318;2023-02-04T01:33:46;94098.16;;;1.86;100.00
6150;BME280;3106;42.670;23.318;2023-02-04T01:36:14;94095.03;;;1.84;100.00
6150;BME280;3106;42.670;23.318;2023-02-04T01:38:45;94083.22;;;1.81;100.00
6150;BME280;3106;42.670;23.318;2023-02-04T01:41:12;94084.97;;;1.86;100.00
6150;BME280;3106;42.670;23.318;2023-02-04T01:43:40;94075.91;;;1.78;100.00
6150;BME280;3106;42.670;23.318;2023-02-04T01:46:07;94075.97;;;1.87;100.00
6150;BME280;3106;42.670;23.318;2023-02-04T01:48:34;94082.81;;;1.88;100.00
6150;BME280;3106;42.670;23.318;2023-02-04T01:51:03;94080.06;;;1.93;100.00
6150;BME280;3106;42.670;23.318;2023-02-04T01:53:32;94084.56;;;1.92;100.00
6150;BME280;3106;42.670;23.318;2023-02-04T01:56:00;94062.69;;;1.92;100.00
6150;BME280;3106;42.670;23.318;2023-02-04T02:00:57;94075.59;;;1.93;100.00
6150;BME280;3106;42.670;23.318;2023-02-04T02:03:24;94066.88;;;1.93;100.00
6150;BME280;3106;42.670;23.318;2023-02-04T02:05:52;94055.38;;;1.89;100.00
6150;BME280;3106;42.670;23.318;2023-02-04T02:08:19;94071.03;;;1.85;100.00
6150;BME280;3106;42.670;23.318;2023-02-04T02:10:48;94057.94;;;1.80;100.00
6150;BME280;3106;42.670;23.318;2023-02-04T02:13:16;94055.81;;;1.82;100.00
6150;BME280;3106;42.670;23.318;2023-02-04T02:15:44;94043.50;;;1.78;100.00
6150;BME280;3106;42.670;23.318;2023-02-04T02:18:11;94054.06;;;1.78;100.00
6150;BME280;3106;42.670;23.318;2023-02-04T02:20:38;94046.75;;;1.75;100.00
6150;BME280;3106;42.670;23.318;2023-02-04T02:23:14;94048.09;;;1.72;100.00
6150;BME280;3106;42.670;23.318;2023-02-04T02:25:45;94034.66;;;1.74;100.00
6150;BME280;3106;42.670;23.318;2023-02-04T02:28:14;94026.75;;;1.74;100.00
6150;BME280;3106;42.670;23.318;2023-02-04T02:30:42;94025.91;;;1.87;100.00
6150;BME280;3106;42.670;23.318;2023-02-04T02:33:10;94003.16;;;1.91;100.00
6150;BME280;3106;42.670;23.318;2023-02-04T02:35:39;93940.25;;;1.54;100.00
6150;BME280;3106;42.670;23.318;2023-02-04T02:38:08;93979.06;;;1.84;100.00
6150;BME280;3106;42.670;23.318;2023-02-04T02:45:45;93965.81;;;1.75;100.00
6150;BME280;3106;42.670;23.318;2023-02-04T02:48:12;93967.94;;;1.65;100.00
6150;BME280;3106;42.670;23.318;2023-02-04T02:50:39;93970.66;;;1.60;100.00
6150;BME280;3106;42.670;23.318;2023-02-04T02:53:10;93961.41;;;1.62;100.00
6150;BME280;3106;42.670;23.318;2023-02-04T02:55:37;93956.41;;;1.61;100.00
6150;BME280;3106;42.670;23.318;2023-02-04T02:58:11;93957.69;;;1.63;100.00
6150;BME280;3106;42.670;23.318;2023-02-04T03:00:40;93961.69;;;1.61;100.00
6150;BME280;3106;42.670;23.318;2023-02-04T03:03:11;93960.50;;;1.67;100.00
6150;BME280;3106;42.670;23.318;2023-02-04T03:05:41;93950.63;;;1.72;100.00
6150;BME280;3106;42.670;23.318;2023-02-04T03:08:10;93955.47;;;1.79;100.00
6150;BME280;3106;42.670;23.318;2023-02-04T03:10:37;93945.06;;;1.74;100.00
6150;BME280;3106;42.670;23.318;2023-02-04T03:13:04;93958.78;;;1.84;100.00
6150;BME280;3106;42.670;23.318;2023-02-04T03:15:31;93968.25;;;1.85;100.00
6150;BME280;3106;42.670;23.318;2023-02-04T03:17:59;93969.50;;;1.88;100.00
6150;BME280;3106;42.670;23.318;2023-02-04T03:20:29;93963.75;;;1.86;100.00
6150;BME280;3106;42.670;23.318;2023-02-04T03:22:56;93966.44;;;1.94;100.00
6150;BME280;3106;42.670;23.318;2023-02-04T03:28:08;93951.06;;;1.88;100.00
6150;BME280;3106;42.670;23.318;2023-02-04T03:30:36;93957.28;;;1.92;100.00
6150;BME280;3106;42.670;23.318;2023-02-04T03:33:03;93953.88;;;1.91;100.00
6150;BME280;3106;42.670;23.318;2023-02-04T03:35:31;93962.53;;;1.92;100.00
6150;BME280;3106;42.670;23.318;2023-02-04T03:37:58;93969.56;;;1.96;100.00
6150;BME280;3106;42.670;23.318;2023-02-04T03:40:28;93961.06;;;1.99;100.00
6150;BME280;3106;42.670;23.318;2023-02-04T03:42:55;93937.06;;;2.01;100.00
6150;BME280;3106;42.670;23.318;2023-02-04T03:45:22;93947.47;;;2.06;100.00
6150;BME280;3106;42.670;23.318;2023-02-04T03:47:48;93950.22;;;2.01;100.00
6150;BME280;3106;42.670;23.318;2023-02-04T03:50:15;93932.88;;;2.08;100.00
6150;BME280;3106;42.670;23.318;2023-02-04T03:52:43;93937.09;;;2.09;100.00
6150;BME280;3106;42.670;23.318;2023-02-04T03:55:10;93944.22;;;2.09;100.00
6150;BME280;3106;42.670;23.318;2023-02-04T03:57:37;93925.03;;;2.17;100.00
6150;BME280;3106;42.670;23.318;2023-02-04T04:00:04;93908.75;;;2.15;100.00
6150;BME280;3106;42.670;23.318;2023-02-04T04:02:31;93910.97;;;2.21;100.00
6150;BME280;3106;42.670;23.318;2023-02-04T04:04:58;93889.81;;;2.13;100.00
6150;BME280;3106;42.670;23.318;2023-02-04T04:07:25;93904.13;;;2.20;100.00
6150;BME280;3106;42.670;23.318;2023-02-04T04:09:53;93884.75;;;2.25;100.00
6150;BME280;3106;42.670;23.318;2023-02-04T04:12:20;93876.69;;;2.30;100.00
6150;BME280;3106;42.670;23.318;2023-02-04T04:14:46;93875.47;;;2.36;100.00
6150;BME280;3106;42.670;23.318;2023-02-04T04:17:13;93876.00;;;2.38;100.00
6150;BME280;3106;42.670;23.318;2023-02-04T04:19:40;93877.50;;;2.30;100.00
6150;BME280;3106;42.670;23.318;2023-02-04T04:22:08;93866.75;;;2.27;100.00
6150;BME280;3106;42.670;23.318;2023-02-04T04:24:35;93859.59;;;2.19;100.00
6150;BME280;3106;42.670;23.318;2023-02-04T04:27:03;93873.41;;;2.16;100.00
6150;BME280;3106;42.670;23.318;2023-02-04T04:29:30;93873.88;;;2.18;100.00
6150;BME280;3106;42.670;23.318;2023-02-04T04:31:57;93889.75;;;2.04;100.00
6150;BME280;3106;42.670;23.318;2023-02-04T04:34:24;93874.69;;;1.96;100.00
6150;BME280;3106;42.670;23.318;2023-02-04T04:36:51;93896.25;;;1.98;100.00
6150;BME280;3106;42.670;23.318;2023-02-04T04:39:17;93887.69;;;1.93;100.00
6150;BME280;3106;42.670;23.318;2023-02-04T04:41:47;93897.88;;;1.86;100.00
6150;BME280;3106;42.670;23.318;2023-02-04T04:44:15;93896.13;;;1.81;100.00
6150;BME280;3106;42.670;23.318;2023-02-04T04:54:15;93909.09;;;2.22;100.00
6150;BME280;3106;42.670;23.318;2023-02-04T04:56:42;93919.97;;;2.20;100.00
6150;BME280;3106;42.670;23.318;2023-02-04T04:59:09;93911.31;;;2.37;100.00
6150;BME280;3106;42.670;23.318;2023-02-04T05:01:37;93910.13;;;2.82;100.00
6150;BME280;3106;42.670;23.318;2023-02-04T05:04:04;93911.44;;;3.09;100.00
6150;BME280;3106;42.670;23.318;2023-02-04T05:06:31;93918.94;;;3.41;98.64
6150;BME280;3106;42.670;23.318;2023-02-04T05:08:57;93901.72;;;3.52;98.42
6150;BME280;3106;42.670;23.318;2023-02-04T05:11:24;93903.88;;;3.67;98.24
6150;BME280;3106;42.670;23.318;2023-02-04T05:13:51;93910.88;;;3.72;98.12
6150;BME280;3106;42.670;23.318;2023-02-04T05:16:18;93915.84;;;3.73;98.37
6150;BME280;3106;42.670;23.318;2023-02-04T05:18:46;93923.94;;;3.77;97.92
6150;BME280;3106;42.670;23.318;2023-02-04T05:21:13;93926.13;;;3.75;98.04
6150;BME280;3106;42.670;23.318;2023-02-04T05:23:39;93928.44;;;3.76;99.19
6150;BME280;3106;42.670;23.318;2023-02-04T05:26:06;93934.53;;;3.77;98.96
6150;BME280;3106;42.670;23.318;2023-02-04T05:28:33;93899.69;;;3.49;98.93
6150;BME280;3106;42.670;23.318;2023-02-04T05:31:00;93796.44;;;2.70;98.84
6150;BME280;3106;42.670;23.318;2023-02-04T05:33:27;93835.31;;;2.94;99.16
6150;BME280;3106;42.670;23.318;2023-02-04T05:35:55;93864.66;;;3.01;99.43
6150;BME280;3106;42.670;23.318;2023-02-04T05:38:22;93987.06;;;3.61;100.00
6150;BME280;3106;42.670;23.318;2023-02-04T05:40:49;93975.38;;;3.54;100.00
6150;BME280;3106;42.670;23.318;2023-02-04T05:43:16;93947.06;;;3.29;100.00
6150;BME280;3106;42.670;23.318;2023-02-04T05:45:43;93904.28;;;3.10;100.00
6150;BME280;3106;42.670;23.318;2023-02-04T05:48:10;93947.38;;;3.36;98.77
6150;BME280;3106;42.670;23.318;2023-02-04T05:50:38;93969.47;;;3.40;99.09
6150;BME280;3106;42.670;23.318;2023-02-04T05:53:07;93954.84;;;3.34;98.34
6150;BME280;3106;42.670;23.318;2023-02-04T05:55:34;93925.59;;;3.13;99.15
6150;BME280;3106;42.670;23.318;2023-02-04T05:58:01;93812.88;;;2.50;96.99
6150;BME280;3106;42.670;23.318;2023-02-04T06:00:28;93948.94;;;3.37;97.61
6150;BME280;3106;42.670;23.318;2023-02-04T06:02:55;93937.88;;;3.26;98.92
6150;BME280;3106;42.670;23.318;2023-02-04T06:05:24;93912.03;;;3.06;98.95
6150;BME280;3106;42.670;23.318;2023-02-04T06:07:50;93912.50;;;3.08;98.31
6150;BME280;3106;42.670;23.318;2023-02-04T06:10:19;93944.91;;;3.31;98.22
6150;BME280;3106;42.670;23.318;2023-02-04T06:12:46;93808.50;;;2.45;97.30
6150;BME280;3106;42.670;23.318;2023-02-04T06:15:14;93945.84;;;3.35;98.03
6150;BME280;3106;42.670;23.318;2023-02-04T06:17:41;93831.38;;;2.58;96.71
6150;BME280;3106;42.670;23.318;2023-02-04T06:20:11;93969.94;;;3.59;96.41
6150;BME280;3106;42.670;23.318;2023-02-04T06:22:38;93955.50;;;3.65;95.84
6150;BME280;3106;42.670;23.318;2023-02-04T06:25:06;93908.38;;;3.41;94.75
6150;BME280;3106;42.670;23.318;2023-02-04T06:27:34;93962.34;;;3.74;93.75
6150;BME280;3106;42.670;23.318;2023-02-04T06:30:01;93969.50;;;3.82;93.70
6150;BME280;3106;42.670;23.318;2023-02-04T06:32:28;93972.47;;;3.81;92.65
6150;BME280;3106;42.670;23.318;2023-02-04T06:34:55;93971.69;;;3.97;91.70
6150;BME280;3106;42.670;23.318;2023-02-04T06:37:22;93950.22;;;3.73;91.05
6150;BME280;3106;42.670;23.318;2023-02-04T06:39:49;93892.22;;;3.43;90.46
6150;BME280;3106;42.670;23.318;2023-02-04T06:42:16;93945.69;;;3.82;90.39
6150;BME280;3106;42.670;23.318;2023-02-04T06:44:44;93983.34;;;4.13;89.25
6150;BME280;3106;42.670;23.318;2023-02-04T06:47:11;93980.38;;;4.15;89.55
6150;BME280;3106;42.670;23.318;2023-02-04T06:49:38;93904.50;;;3.73;88.81
6150;BME280;3106;42.670;23.318;2023-02-04T06:52:05;93972.91;;;4.25;87.71
6150;BME280;3106;42.670;23.318;2023-02-04T06:54:32;93915.06;;;3.98;87.39
6150;BME280;3106;42.670;23.318;2023-02-04T06:56:59;93978.00;;;4.47;86.36
6150;BME280;3106;42.670;23.318;2023-02-04T06:59:31;93950.78;;;4.38;85.80
6150;BME280;3106;42.670;23.318;2023-02-04T07:01:59;93924.78;;;4.40;84.37
6150;BME280;3106;42.670;23.318;2023-02-04T07:04:26;93900.56;;;4.21;85.32
6150;BME280;3106;42.670;23.318;2023-02-04T07:06:53;93971.69;;;4.77;84.32
6150;BME280;3106;42.670;23.318;2023-02-04T07:09:20;93900.94;;;4.57;83.43
6150;BME280;3106;42.670;23.318;2023-02-04T07:11:47;93932.41;;;4.87;83.07
6150;BME280;3106;42.670;23.318;2023-02-04T07:14:14;93907.28;;;4.64;82.41
6150;BME280;3106;42.670;23.318;2023-02-04T07:16:41;93903.25;;;4.58;83.83
6150;BME280;3106;42.670;23.318;2023-02-04T07:19:09;93963.09;;;4.97;83.31
6150;BME280;3106;42.670;23.318;2023-02-04T07:21:36;93878.06;;;4.44;83.51
6150;BME280;3106;42.670;23.318;2023-02-04T07:24:03;93915.50;;;4.71;82.94
6150;BME280;3106;42.670;23.318;2023-02-04T07:26:30;93951.94;;;5.12;82.56
6150;BME280;3106;42.670;23.318;2023-02-04T07:28:58;93908.88;;;4.86;82.36
6150;BME280;3106;42.670;23.318;2023-02-04T07:31:25;93922.19;;;5.06;81.50
6150;BME280;3106;42.670;23.318;2023-02-04T07:33:52;93914.88;;;5.03;81.38
6150;BME280;3106;42.670;23.318;2023-02-04T07:36:20;93948.16;;;5.50;81.20
6150;BME280;3106;42.670;23.318;2023-02-04T07:38:47;93920.88;;;5.21;80.61
6150;BME280;3106;42.670;23.318;2023-02-04T07:41:14;93877.81;;;5.03;80.41
6150;BME280;3106;42.670;23.318;2023-02-04T07:43:41;93941.31;;;5.70;79.05
6150;BME280;3106;42.670;23.318;2023-02-04T07:46:07;93936.41;;;5.80;79.40
6150;BME280;3106;42.670;23.318;2023-02-04T07:48:34;93938.41;;;5.83;78.30
6150;BME280;3106;42.670;23.318;2023-02-04T07:51:01;93943.66;;;6.12;77.82
6150;BME280;3106;42.670;23.318;2023-02-04T07:53:30;93942.03;;;6.19;77.06
6150;BME280;3106;42.670;23.318;2023-02-04T07:55:57;93916.47;;;6.15;76.04
6150;BME280;3106;42.670;23.318;2023-02-04T07:58:24;93916.19;;;6.28;75.10
6150;BME280;3106;42.670;23.318;2023-02-04T08:00:50;93932.97;;;6.20;75.59
6150;BME280;3106;42.670;23.318;2023-02-04T08:03:18;93941.44;;;6.14;76.68
6150;BME280;3106;42.670;23.318;2023-02-04T08:05:45;93845.22;;;5.52;76.85
6150;BME280;3106;42.670;23.318;2023-02-04T08:08:11;93899.13;;;5.77;76.37
6150;BME280;3106;42.670;23.318;2023-02-04T08:10:41;93919.13;;;5.74;77.00
6150;BME280;3106;42.670;23.318;2023-02-04T08:13:09;93913.16;;;5.77;76.71
6150;BME280;3106;42.670;23.318;2023-02-04T08:15:36;93897.66;;;5.47;77.38
6150;BME280;3106;42.670;23.318;2023-02-04T08:18:03;93906.63;;;5.34;78.67
6150;BME280;3106;42.670;23.318;2023-02-04T08:20:30;93955.00;;;5.51;79.37
6150;BME280;3106;42.670;23.318;2023-02-04T08:22:57;93915.91;;;5.19;79.90
6150;BME280;3106;42.670;23.318;2023-02-04T08:25:24;93953.94;;;5.44;79.91
6150;BME280;3106;42.670;23.318;2023-02-04T08:27:52;93950.19;;;5.45;79.81
6150;BME280;3106;42.670;23.318;2023-02-04T08:30:19;93863.53;;;4.96;79.92
6150;BME280;3106;42.670;23.318;2023-02-04T08:32:46;93905.44;;;5.23;79.46
6150;BME280;3106;42.670;23.318;2023-02-04T08:35:13;93927.63;;;5.39;79.87
6150;BME280;3106;42.670;23.318;2023-02-04T08:37:39;93940.78;;;5.56;79.33
6150;BME280;3106;42.670;23.318;2023-02-04T08:40:07;93917.50;;;5.41;80.10
6150;BME280;3106;42.670;23.318;2023-02-04T08:42:34;93911.41;;;5.40;80.26
6150;BME280;3106;42.670;23.318;2023-02-04T08:45:05;93896.78;;;5.34;81.01
6150;BME280;3106;42.670;23.318;2023-02-04T08:47:32;93929.75;;;5.45;81.92
6150;BME280;3106;42.670;23.318;2023-02-04T08:49:59;93934.31;;;5.45;82.48
6150;BME280;3106;42.670;23.318;2023-02-04T08:52:26;93934.75;;;5.47;82.90
6150;BME280;3106;42.670;23.318;2023-02-04T08:54:52;93847.06;;;4.82;83.45
6150;BME280;3106;42.670;23.318;2023-02-04T08:57:20;93862.56;;;5.00;83.71
6150;BME280;3106;42.670;23.318;2023-02-04T08:59:46;93892.31;;;5.26;83.67
6150;BME280;3106;42.670;23.318;2023-02-04T09:02:15;93922.75;;;5.49;83.84
6150;BME280;3106;42.670;23.318;2023-02-04T09:04:42;93871.16;;;5.18;83.47
6150;BME280;3106;42.670;23.318;2023-02-04T09:07:09;93903.97;;;5.34;83.62
6150;BME280;3106;42.670;23.318;2023-02-04T09:09:37;93884.69;;;5.25;83.10
6150;BME280;3106;42.670;23.318;2023-02-04T09:12:03;93863.34;;;5.01;83.26
6150;BME280;3106;42.670;23.318;2023-02-04T09:14:30;93863.69;;;5.20;82.14
6150;BME280;3106;42.670;23.318;2023-02-04T09:16:57;93835.13;;;5.05;81.98
6150;BME280;3106;42.670;23.318;2023-02-04T09:19:26;93890.59;;;5.51;80.64
6150;BME280;3106;42.670;23.318;2023-02-04T09:21:53;93839.38;;;5.18;81.02
6150;BME280;3106;42.670;23.318;2023-02-04T09:24:20;93878.63;;;5.45;80.50
6150;BME280;3106;42.670;23.318;2023-02-04T09:26:48;93869.44;;;5.42;80.46
6150;BME280;3106;42.670;23.318;2023-02-04T09:29:14;93927.22;;;5.78;80.01
6150;BME280;3106;42.670;23.318;2023-02-04T09:31:42;93887.50;;;5.49;80.21
6150;BME280;3106;42.670;23.318;2023-02-04T09:34:09;93878.44;;;5.50;80.41
6150;BME280;3106;42.670;23.318;2023-02-04T09:36:37;93883.59;;;5.46;82.10
6150;BME280;3106;42.670;23.318;2023-02-04T09:39:04;93893.69;;;5.53;83.48
6150;BME280;3106;42.670;23.318;2023-02-04T09:41:32;93866.34;;;5.40;83.60
6150;BME280;3106;42.670;23.318;2023-02-04T09:43:59;93813.13;;;5.04;83.65
6150;BME280;3106;42.670;23.318;2023-02-04T09:46:27;93911.16;;;5.54;85.07
6150;BME280;3106;42.670;23.318;2023-02-04T09:48:55;93879.66;;;5.32;86.18
6150;BME280;3106;42.670;23.318;2023-02-04T09:51:25;93836.47;;;5.11;86.58
6150;BME280;3106;42.670;23.318;2023-02-04T09:54:13;93883.59;;;5.26;87.59
6150;BME280;3106;42.670;23.318;2023-02-04T09:56:41;93867.00;;;5.08;88.36
6150;BME280;3106;42.670;23.318;2023-02-04T09:59:10;93836.72;;;4.97;89.02
6150;BME280;3106;42.670;23.318;2023-02-04T10:01:38;93864.06;;;5.10;88.86
6150;BME280;3106;42.670;23.318;2023-02-04T10:04:09;93869.44;;;5.22;89.75
6150;BME280;3106;42.670;23.318;2023-02-04T10:06:37;93888.75;;;5.22;90.54
6150;BME280;3106;42.670;23.318;2023-02-04T10:09:09;93886.13;;;5.22;90.08
6150;BME280;3106;42.670;23.318;2023-02-04T10:11:37;93841.00;;;5.10;90.36
6150;BME280;3106;42.670;23.318;2023-02-04T10:14:09;93870.94;;;5.31;89.81
6150;BME280;3106;42.670;23.318;2023-02-04T10:16:39;93805.25;;;4.96;88.76
6150;BME280;3106;42.670;23.318;2023-02-04T10:19:12;93818.75;;;4.82;88.89
6150;BME280;3106;42.670;23.318;2023-02-04T10:21:39;93800.00;;;4.87;88.92
6150;BME280;3106;42.670;23.318;2023-02-04T10:24:13;93860.94;;;5.37;88.74
6150;BME280;3106;42.670;23.318;2023-02-04T10:26:45;93859.44;;;5.48;87.87
6150;BME280;3106;42.670;23.318;2023-02-04T10:29:13;93796.59;;;5.07;88.04
6150;BME280;3106;42.670;23.318;2023-02-04T10:31:42;93862.09;;;5.48;88.70
6150;BME280;3106;42.670;23.318;2023-02-04T10:34:13;93856.47;;;5.49;88.44
6150;BME280;3106;42.670;23.318;2023-02-04T10:36:41;93865.88;;;5.59;88.60
6150;BME280;3106;42.670;23.318;2023-02-04T10:39:14;93799.44;;;5.02;89.26
6150;BME280;3106;42.670;23.318;2023-02-04T10:41:46;93794.13;;;5.02;90.63
6150;BME280;3106;42.670;23.318;2023-02-04T10:44:14;93857.22;;;5.50;91.55
6150;BME280;3106;42.670;23.318;2023-02-04T10:46:42;93835.28;;;5.29;92.71
6150;BME280;3106;42.670;23.318;2023-02-04T10:49:20;93858.47;;;5.32;93.43
6150;BME280;3106;42.670;23.318;2023-02-04T10:51:48;93817.84;;;4.99;93.98
6150;BME280;3106;42.670;23.318;2023-02-04T10:54:20;93847.84;;;5.11;94.66
6150;BME280;3106;42.670;23.318;2023-02-04T10:57:07;93825.69;;;5.16;94.93
6150;BME280;3106;42.670;23.318;2023-02-04T10:59:37;93835.28;;;5.29;94.45
6150;BME280;3106;42.670;23.318;2023-02-04T11:02:24;93830.59;;;5.26;94.21
6150;BME280;3106;42.670;23.318;2023-02-04T11:04:55;93792.78;;;4.96;93.54
6150;BME280;3106;42.670;23.318;2023-02-04T11:07:22;93780.63;;;4.95;93.14
6150;BME280;3106;42.670;23.318;2023-02-04T11:09:51;93790.53;;;5.07;92.70
6150;BME280;3106;42.670;23.318;2023-02-04T11:12:19;93828.94;;;5.42;91.37
6150;BME280;3106;42.670;23.318;2023-02-04T11:14:54;93829.97;;;5.49;91.37
6150;BME280;3106;42.670;23.318;2023-02-04T11:17:28;93821.44;;;5.44;92.06
6150;BME280;3106;42.670;23.318;2023-02-04T11:19:56;93784.72;;;5.34;91.56
6150;BME280;3106;42.670;23.318;2023-02-04T11:22:40;93798.03;;;5.46;90.53
6150;BME280;3106;42.670;23.318;2023-02-04T11:25:33;93815.19;;;5.60;90.56
6150;BME280;3106;42.670;23.318;2023-02-04T11:28:12;93784.53;;;5.39;90.46
6150;BME280;3106;42.670;23.318;2023-02-04T11:30:39;93777.66;;;5.38;90.88
6150;BME280;3106;42.670;23.318;2023-02-04T11:33:21;93771.13;;;5.35;91.43
6150;BME280;3106;42.670;23.318;2023-02-04T11:36:02;93817.06;;;5.60;91.91
6150;BME280;3106;42.670;23.318;2023-02-04T11:38:30;93776.13;;;5.37;92.25
6150;BME280;3106;42.670;23.318;2023-02-04T11:40:59;93822.81;;;5.62;91.77
6150;BME280;3106;42.670;23.318;2023-02-04T11:43:26;93782.28;;;5.29;91.89
6150;BME280;3106;42.670;23.318;2023-02-04T11:46:06;93778.91;;;5.20;92.22
6150;BME280;3106;42.670;23.318;2023-02-04T11:48:36;93756.50;;;4.97;93.13
6150;BME280;3106;42.670;23.318;2023-02-04T11:51:11;93789.03;;;5.38;92.97
6150;BME280;3106;42.670;23.318;2023-02-04T11:53:38;93753.44;;;5.27;92.70
6150;BME280;3106;42.670;23.318;2023-02-04T11:56:15;93784.28;;;5.64;91.45
6150;BME280;3106;42.670;23.318;2023-02-04T11:58:42;93776.44;;;5.35;90.00
6150;BME280;3106;42.670;23.318;2023-02-04T12:01:16;93788.19;;;5.26;91.72
6150;BME280;3106;42.670;23.318;2023-02-04T12:03:46;93784.09;;;5.16;91.98
6150;BME280;3106;42.670;23.318;2023-02-04T12:06:20;93768.00;;;5.01;93.10
6150;BME280;3106;42.670;23.318;2023-02-04T12:08:47;93776.44;;;5.15;94.41
6150;BME280;3106;42.670;23.318;2023-02-04T12:11:25;93819.72;;;5.39;93.86
6150;BME280;3106;42.670;23.318;2023-02-04T12:13:56;93777.78;;;5.21;94.56
6150;BME280;3106;42.670;23.318;2023-02-04T12:16:23;93817.94;;;5.31;94.62
6150;BME280;3106;42.670;23.318;2023-02-04T12:18:50;93770.00;;;5.04;94.87
6150;BME280;3106;42.670;23.318;2023-02-04T12:21:17;93813.72;;;5.10;94.74
6150;BME280;3106;42.670;23.318;2023-02-04T12:23:44;93763.78;;;4.79;95.68
6150;BME280;3106;42.670;23.318;2023-02-04T12:26:12;93777.91;;;4.83;95.49
6150;BME280;3106;42.670;23.318;2023-02-04T12:28:40;93767.38;;;4.75;98.17
6150;BME280;3106;42.670;23.318;2023-02-04T12:31:07;93748.41;;;4.73;98.08
6150;BME280;3106;42.670;23.318;2023-02-04T12:33:34;93803.97;;;5.02;98.32
6150;BME280;3106;42.670;23.318;2023-02-04T12:36:00;93737.09;;;4.64;97.12
6150;BME280;3106;42.670;23.318;2023-02-04T12:38:27;93791.81;;;5.01;96.14
6150;BME280;3106;42.670;23.318;2023-02-04T12:40:54;93772.75;;;4.87;94.44
6150;BME280;3106;42.670;23.318;2023-02-04T12:43:21;93722.66;;;4.53;94.36
6150;BME280;3106;42.670;23.318;2023-02-04T12:45:50;93806.09;;;5.08;93.53
6150;BME280;3106;42.670;23.318;2023-02-04T12:48:17;93795.25;;;5.22;93.45
6150;BME280;3106;42.670;23.318;2023-02-04T12:50:44;93734.31;;;4.81;92.33
6150;BME280;3106;42.670;23.318;2023-02-04T12:53:11;93782.00;;;5.22;91.13
6150;BME280;3106;42.670;23.318;2023-02-04T12:55:38;93750.00;;;5.06;89.81
6150;BME280;3106;42.670;23.318;2023-02-04T12:58:05;93766.22;;;5.25;90.35
6150;BME280;3106;42.670;23.318;2023-02-04T13:00:32;93812.13;;;5.38;89.94
6150;BME280;3106;42.670;23.318;2023-02-04T13:03:00;93753.91;;;5.09;90.22
6150;BME280;3106;42.670;23.318;2023-02-04T13:05:28;93741.50;;;5.01;89.80
6150;BME280;3106;42.670;23.318;2023-02-04T13:07:55;93779.03;;;5.03;90.24
6150;BME280;3106;42.670;23.318;2023-02-04T13:10:22;93771.53;;;5.05;90.55
6150;BME280;3106;42.670;23.318;2023-02-04T13:12:49;93762.03;;;5.04;91.00
6150;BME280;3106;42.670;23.318;2023-02-04T13:15:16;93735.59;;;4.75;90.43
6150;BME280;3106;42.670;23.318;2023-02-04T13:17:43;93763.88;;;4.83;91.59
6150;BME280;3106;42.670;23.318;2023-02-04T13:20:12;93813.06;;;5.13;91.26
6150;BME280;3106;42.670;23.318;2023-02-04T13:22:38;93809.22;;;5.10;91.53
6150;BME280;3106;42.670;23.318;2023-02-04T13:25:06;93774.94;;;4.85;91.19
6150;BME280;3106;42.670;23.318;2023-02-04T13:27:33;93778.69;;;4.84;91.98
6150;BME280;3106;42.670;23.318;2023-02-04T13:30:00;93769.44;;;4.69;92.09
6150;BME280;3106;42.670;23.318;2023-02-04T13:32:27;93826.06;;;5.06;91.82
6150;BME280;3106;42.670;23.318;2023-02-04T13:34:55;93828.31;;;4.95;92.44
6150;BME280;3106;42.670;23.318;2023-02-04T13:37:24;93803.53;;;4.71;92.75
6150;BME280;3106;42.670;23.318;2023-02-04T13:39:51;93793.31;;;4.61;93.26
6150;BME280;3106;42.670;23.318;2023-02-04T13:42:17;93831.97;;;4.82;93.38